Time;durP1;ratioP1;P1;durP2;ratioP2;P2;SDS_P1;SDS_P2;PMS_P1;PMS_P2;Temp;Humidity;BMP_temperature;BMP_pressure;BME280_temperature;BME280_humidity;BME280_pressure;Samples;Min_cycle;Max_cycle;Signal;HPM_P1;HPM_P2
2024/01/12 00:01:29;;;;;;;32.50;15.60;;;22.70;51.50;;;;;;222515;1266;22511;-54
2024/01/12 00:06:33;;;;;;;27.40;16.30;;;22.70;50.90;;;;;;222053;1257;24217;-53
2024/01/12 00:11:38;;;;;;;25.50;14.60;;;22.60;50.20;;;;;;222641;1260;25290;-55
2024/01/12 00:16:47;;;;;;;25.20;15.20;;;22.50;49.80;;;;;;222564;1260;23820;-54
2024/01/12 00:21:54;;;;;;;25.90;15.00;;;22.70;49.10;;;;;;222260;1253;24235;-51
2024/01/12 00:26:59;;;;;;;23.60;14.30;;;22.80;48.50;;;;;;222917;1266;22528;-54
2024/01/12 00:32:07;;;;;;;23.40;14.00;;;22.90;48.30;;;;;;222522;1266;22514;-53
2024/01/12 00:37:11;;;;;;;28.30;14.40;;;23.00;47.90;;;;;;222486;1255;22531;-53
2024/01/12 00:42:15;;;;;;;22.00;14.10;;;23.10;48.20;;;;;;222451;1263;22826;-54
2024/01/12 00:47:19;;;;;;;22.90;13.60;;;23.10;47.60;;;;;;224648;1267;22548;-54
2024/01/12 00:52:24;;;;;;;21.90;12.90;;;23.30;47.30;;;;;;222464;1267;24238;-55
2024/01/12 00:57:28;;;;;;;21.40;12.40;;;23.40;47.10;;;;;;222694;1262;22556;-55
2024/01/12 01:02:32;;;;;;;19.60;12.60;;;23.30;47.00;;;;;;222614;1264;25354;-54
2024/01/12 01:07:37;;;;;;;17.80;11.90;;;23.30;47.00;;;;;;222199;1258;25360;-54
2024/01/12 01:12:42;;;;;;;18.50;11.40;;;23.20;47.00;;;;;;222401;1267;25457;-54
2024/01/12 01:17:47;;;;;;;19.70;11.70;;;23.00;47.00;;;;;;222207;1263;22621;-55
2024/01/12 01:22:51;;;;;;;19.80;11.00;;;23.00;47.00;;;;;;222605;1265;22520;-54
2024/01/12 01:27:56;;;;;;;19.70;11.00;;;22.90;47.30;;;;;;222844;1266;22527;-54
2024/01/12 01:33:00;;;;;;;16.50;10.30;;;22.80;47.10;;;;;;222562;1256;22556;-52
2024/01/12 01:38:05;;;;;;;14.50;10.10;;;22.80;47.90;;;;;;222510;1262;24173;-53
2024/01/12 01:43:12;;;;;;;15.10;10.70;;;23.00;47.00;;;;;;222593;1260;22643;-54
2024/01/12 01:48:16;;;;;;;18.20;10.30;;;23.10;46.60;;;;;;222733;1260;24239;-54
2024/01/12 01:53:22;;;;;;;15.30;9.50;;;23.10;46.40;;;;;;222353;1261;22667;-52
2024/01/12 01:58:28;;;;;;;14.70;9.80;;;23.20;46.40;;;;;;222385;1261;26262;-53
2024/01/12 02:03:33;;;;;;;13.40;9.20;;;23.30;46.30;;;;;;222388;1264;22595;-55
2024/01/12 02:08:38;;;;;;;13.70;9.30;;;23.30;46.20;;;;;;222148;1260;22529;-53
2024/01/12 02:13:43;;;;;;;15.30;9.20;;;23.30;46.20;;;;;;222708;1257;22520;-53
2024/01/12 02:18:48;;;;;;;14.40;9.10;;;23.30;46.50;;;;;;223517;1267;22518;-55
2024/01/12 02:23:52;;;;;;;14.20;9.00;;;23.30;46.00;;;;;;223337;1259;26514;-53
2024/01/12 02:28:58;;;;;;;12.00;9.00;;;23.40;46.00;;;;;;224003;1264;22531;-54
2024/01/12 02:34:08;;;;;;;14.30;9.00;;;23.40;46.30;;;;;;222707;1263;22763;-54
2024/01/12 02:39:13;;;;;;;10.80;8.10;;;23.40;46.20;;;;;;225727;1260;22521;-55
2024/01/12 02:44:17;;;;;;;11.80;7.80;;;23.50;45.90;;;;;;225418;1263;22543;-53
2024/01/12 02:49:25;;;;;;;11.80;8.10;;;23.40;45.50;;;;;;225574;1267;22534;-52
2024/01/12 02:54:29;;;;;;;10.00;7.90;;;23.30;46.00;;;;;;222809;1260;22517;-52
2024/01/12 02:59:37;;;;;;;13.20;8.10;;;23.00;46.30;;;;;;223239;1266;25349;-53
2024/01/12 03:04:42;;;;;;;12.10;8.40;;;22.90;46.30;;;;;;223931;1267;23052;-53
2024/01/12 03:09:46;;;;;;;9.50;7.20;;;22.80;46.40;;;;;;222677;1267;24229;-52
2024/01/12 03:14:53;;;;;;;11.30;7.70;;;23.00;46.10;;;;;;222446;1253;22574;-53
2024/01/12 03:19:57;;;;;;;9.30;6.20;;;23.00;46.80;;;;;;222832;1254;26536;-54
2024/01/12 03:25:02;;;;;;;9.20;6.70;;;22.90;47.40;;;;;;222563;1266;22523;-52
2024/01/12 03:30:07;;;;;;;9.40;7.20;;;23.00;47.00;;;;;;222592;1260;22549;-53
2024/01/12 03:35:12;;;;;;;8.00;6.40;;;23.20;46.10;;;;;;222146;1263;22518;-54
2024/01/12 03:40:20;;;;;;;9.20;6.70;;;23.30;45.70;;;;;;222205;1262;22530;-53
2024/01/12 03:45:25;;;;;;;10.70;6.60;;;23.30;45.90;;;;;;221199;1267;24236;-54
2024/01/12 03:50:29;;;;;;;8.80;6.60;;;23.30;45.60;;;;;;220979;1273;22538;-53
2024/01/12 03:55:36;;;;;;;8.60;6.70;;;23.30;45.80;;;;;;221149;1276;25209;-55
2024/01/12 04:00:40;;;;;;;8.30;6.30;;;23.30;45.80;;;;;;220707;1274;22540;-50
2024/01/12 04:05:44;;;;;;;8.00;6.80;;;23.30;45.90;;;;;;220995;1270;24237;-50
2024/01/12 04:10:49;;;;;;;8.70;6.50;;;23.20;45.60;;;;;;221657;1264;22515;-53
2024/01/12 04:15:54;;;;;;;6.70;5.70;;;23.10;45.60;;;;;;222426;1268;24206;-53
2024/01/12 04:21:00;;;;;;;8.30;6.20;;;23.10;45.80;;;;;;221928;1260;22644;-54
2024/01/12 04:26:06;;;;;;;7.10;5.80;;;23.20;46.10;;;;;;222391;1261;24187;-53
2024/01/12 04:31:11;;;;;;;7.00;5.80;;;23.10;45.60;;;;;;222846;1268;22500;-52
2024/01/12 04:36:16;;;;;;;7.10;5.30;;;23.00;46.00;;;;;;226817;1262;24181;-53
2024/01/12 04:41:20;;;;;;;6.70;5.50;;;23.00;45.60;;;;;;226636;1262;23047;-53
2024/01/12 04:46:24;;;;;;;7.00;4.80;;;23.10;45.20;;;;;;223375;1267;23816;-53
2024/01/12 04:51:29;;;;;;;6.20;5.20;;;23.00;45.40;;;;;;223257;1266;22574;-54
2024/01/12 04:56:34;;;;;;;8.20;5.20;;;23.00;45.90;;;;;;222903;1266;24217;-54
2024/01/12 05:01:38;;;;;;;5.70;4.70;;;22.90;46.50;;;;;;222727;1259;25253;-52
2024/01/12 05:06:43;;;;;;;7.40;5.50;;;23.00;46.20;;;;;;222675;1252;24177;-53
2024/01/12 05:11:48;;;;;;;6.50;5.00;;;23.10;45.60;;;;;;222653;1265;22639;-53
2024/01/12 05:16:53;;;;;;;7.90;5.60;;;23.30;45.10;;;;;;222439;1267;22523;-51
2024/01/12 05:21:58;;;;;;;7.30;5.30;;;23.30;45.50;;;;;;222545;1267;22573;-54
2024/01/12 05:27:03;;;;;;;6.10;4.60;;;23.30;45.40;;;;;;223311;1262;22520;-55
2024/01/12 05:32:07;;;;;;;7.20;5.30;;;23.30;45.20;;;;;;222141;1264;24276;-54
2024/01/12 05:37:12;;;;;;;5.60;5.10;;;23.20;45.00;;;;;;224440;1263;24343;-53
2024/01/12 05:42:17;;;;;;;4.80;4.30;;;23.10;45.00;;;;;;222681;1253;22556;-52
2024/01/12 05:47:21;;;;;;;5.40;4.40;;;23.10;45.00;;;;;;221894;1260;471444;-53
2024/01/12 05:52:26;;;;;;;6.90;4.40;;;23.00;45.50;;;;;;224858;1263;22530;-54
2024/01/12 05:57:31;;;;;;;6.90;5.10;;;23.00;45.10;;;;;;222080;1257;22508;-55
2024/01/12 06:02:36;;;;;;;5.80;5.10;;;22.80;45.20;;;;;;222678;1257;22521;-53
2024/01/12 06:07:40;;;;;;;6.20;4.50;;;22.70;45.90;;;;;;222475;1253;26603;-52
2024/01/12 06:12:45;;;;;;;5.20;4.70;;;22.70;45.50;;;;;;223812;1256;22521;-55
2024/01/12 06:17:49;;;;;;;4.70;4.30;;;22.50;45.60;;;;;;222672;1268;23349;-55
2024/01/12 06:22:54;;;;;;;4.40;4.00;;;22.80;45.30;;;;;;223020;1261;25279;-53
2024/01/12 06:28:01;;;;;;;5.10;4.60;;;22.90;45.50;;;;;;221780;1271;22650;-54
2024/01/12 06:33:05;;;;;;;5.90;4.80;;;22.80;45.70;;;;;;221264;1270;22804;-53
2024/01/12 06:38:13;;;;;;;4.70;4.10;;;22.80;46.00;;;;;;221647;1273;25611;-54
2024/01/12 06:43:20;;;;;;;4.90;4.10;;;23.00;45.20;;;;;;221267;1266;25285;-50
2024/01/12 06:48:24;;;;;;;4.60;4.20;;;23.00;45.30;;;;;;222287;1264;25405;-51
2024/01/12 06:53:29;;;;;;;6.60;3.90;;;23.10;45.10;;;;;;222488;1267;24341;-47
2024/01/12 06:58:34;;;;;;;9.00;3.90;;;23.10;46.00;;;;;;222585;1262;22533;-50
2024/01/12 07:03:38;;;;;;;6.10;4.30;;;22.90;46.50;;;;;;222785;1267;23432;-51
2024/01/12 07:08:42;;;;;;;8.80;3.90;;;22.80;46.90;;;;;;222515;1262;24336;-52
2024/01/12 07:13:46;;;;;;;5.10;4.70;;;22.70;47.70;;;;;;222741;1266;24374;-48
2024/01/12 07:18:52;;;;;;;7.30;3.90;;;22.60;47.50;;;;;;223144;1260;24241;-51
2024/01/12 07:23:56;;;;;;;5.90;3.70;;;22.60;47.70;;;;;;222341;1264;24984;-48
2024/01/12 07:29:02;;;;;;;6.30;3.50;;;22.50;47.50;;;;;;222103;1268;24265;-48
2024/01/12 07:34:06;;;;;;;6.10;4.30;;;22.50;47.60;;;;;;222424;1265;24405;-48
2024/01/12 07:39:12;;;;;;;6.90;4.40;;;22.40;47.40;;;;;;222822;1261;24183;-49
2024/01/12 07:44:16;;;;;;;6.00;3.50;;;22.40;47.50;;;;;;222949;1267;22538;-48
2024/01/12 07:49:20;;;;;;;4.20;3.80;;;22.50;47.40;;;;;;221993;1257;22532;-48
2024/01/12 07:54:25;;;;;;;16.60;3.60;;;22.70;48.30;;;;;;222534;1260;22532;-49
2024/01/12 07:59:29;;;;;;;8.80;3.90;;;22.60;46.90;;;;;;222733;1263;22576;-52
2024/01/12 08:04:33;;;;;;;4.80;3.50;;;22.60;46.30;;;;;;223298;1264;25403;-48
2024/01/12 08:09:37;;;;;;;6.10;3.70;;;22.70;46.30;;;;;;222067;1253;22723;-51
2024/01/12 08:14:42;;;;;;;3.60;3.30;;;22.80;45.70;;;;;;222852;1267;24200;-50
2024/01/12 08:19:47;;;;;;;5.30;3.50;;;22.80;45.60;;;;;;222439;1268;25430;-51
2024/01/12 08:24:51;;;;;;;4.30;3.90;;;22.70;45.60;;;;;;222469;1264;22587;-50
2024/01/12 08:29:55;;;;;;;7.10;4.40;;;22.60;45.40;;;;;;222460;1268;25443;-48
2024/01/12 08:35:00;;;;;;;4.90;3.70;;;22.50;45.30;;;;;;222415;1267;22883;-48
2024/01/12 08:40:06;;;;;;;3.90;3.10;;;22.50;45.30;;;;;;225482;1257;22567;-50
2024/01/12 08:45:12;;;;;;;4.60;3.20;;;22.50;45.20;;;;;;223349;1265;25325;-48
2024/01/12 08:50:17;;;;;;;4.90;4.40;;;22.40;45.10;;;;;;225548;1249;24880;-49
2024/01/12 08:55:21;;;;;;;3.30;3.00;;;22.30;45.00;;;;;;225420;1268;22647;-47
2024/01/12 09:00:26;;;;;;;4.00;3.40;;;22.40;45.40;;;;;;224801;1248;22529;-50
2024/01/12 09:05:31;;;;;;;4.00;3.20;;;22.30;44.80;;;;;;222314;1265;24246;-50
2024/01/12 09:10:36;;;;;;;4.90;3.20;;;22.20;45.20;;;;;;222162;1265;23171;-52
2024/01/12 09:15:40;;;;;;;3.80;3.00;;;22.30;45.20;;;;;;222503;1265;24253;-51
2024/01/12 09:20:44;;;;;;;4.80;3.40;;;22.60;45.30;;;;;;222183;1265;22748;-49
2024/01/12 09:25:49;;;;;;;6.20;3.40;;;22.70;44.80;;;;;;221986;1263;24294;-51
2024/01/12 09:30:55;;;;;;;3.20;3.00;;;22.70;44.20;;;;;;222300;1267;22553;-52
2024/01/12 09:35:59;;;;;;;3.80;3.50;;;22.80;44.00;;;;;;222485;1267;22528;-49
2024/01/12 09:41:08;;;;;;;3.60;3.30;;;22.90;44.00;;;;;;222271;1260;22631;-50
2024/01/12 09:46:16;;;;;;;5.20;3.50;;;22.90;43.70;;;;;;222414;1265;24372;-52
2024/01/12 09:51:23;;;;;;;3.70;3.40;;;22.90;43.60;;;;;;222861;1264;24180;-51
2024/01/12 09:56:28;;;;;;;5.70;3.50;;;23.00;43.60;;;;;;222634;1261;24215;-49
2024/01/12 10:01:45;;;;;;;3.80;3.40;;;22.70;44.10;;;;;;222781;1266;22782;-50
2024/01/12 10:06:51;;;;;;;3.80;3.50;;;22.60;44.70;;;;;;222589;1266;23582;-53
2024/01/12 10:11:56;;;;;;;4.10;3.50;;;22.50;44.40;;;;;;222466;1257;24228;-51
2024/01/12 10:17:04;;;;;;;3.50;3.20;;;22.60;44.90;;;;;;222682;1266;22527;-48
2024/01/12 10:22:13;;;;;;;3.70;3.30;;;22.40;46.00;;;;;;222286;1268;25309;-48
2024/01/12 10:27:17;;;;;;;3.90;3.60;;;22.40;45.00;;;;;;222709;1256;25374;-52
2024/01/12 10:32:23;;;;;;;4.70;3.30;;;22.50;44.90;;;;;;222725;1243;22530;-48
2024/01/12 10:37:31;;;;;;;3.20;2.90;;;22.40;44.50;;;;;;223092;1265;23928;-51
2024/01/12 10:42:38;;;;;;;3.60;3.30;;;22.60;44.20;;;;;;222688;1266;22544;-51
2024/01/12 10:47:47;;;;;;;3.60;3.30;;;22.60;44.50;;;;;;222626;1265;22530;-53
2024/01/12 10:53:02;;;;;;;3.70;3.40;;;22.80;44.10;;;;;;222202;1268;24376;-50
2024/01/12 10:58:07;;;;;;;5.00;3.50;;;22.90;43.80;;;;;;222847;1265;25305;-50
2024/01/12 11:03:15;;;;;;;3.60;3.30;;;23.00;43.60;;;;;;222536;1267;23346;-50
2024/01/12 11:08:22;;;;;;;3.50;3.20;;;23.00;43.40;;;;;;222742;1265;22540;-49
2024/01/12 11:13:27;;;;;;;3.60;3.20;;;23.00;43.60;;;;;;222383;1263;25307;-49
2024/01/12 11:18:33;;;;;;;3.70;3.40;;;23.00;43.30;;;;;;222471;1259;24226;-51
2024/01/12 11:23:43;;;;;;;3.70;3.30;;;23.10;43.10;;;;;;222700;1265;22679;-49
2024/01/12 11:28:49;;;;;;;3.30;3.00;;;22.90;43.30;;;;;;222221;1268;26747;-51
2024/01/12 11:33:58;;;;;;;4.40;3.30;;;22.70;43.60;;;;;;222634;1260;22562;-53
2024/01/12 11:39:03;;;;;;;3.30;3.10;;;22.60;43.80;;;;;;222463;1263;22585;-50
2024/01/12 11:44:08;;;;;;;3.40;3.10;;;22.60;43.60;;;;;;222481;1267;22541;-53
2024/01/12 11:49:15;;;;;;;3.50;3.20;;;22.50;44.30;;;;;;222649;1265;24198;-49
2024/01/12 11:54:23;;;;;;;3.40;3.10;;;22.50;43.70;;;;;;222022;1268;25223;-48
2024/01/12 11:59:28;;;;;;;2.90;2.70;;;22.50;43.80;;;;;;222439;1260;24180;-50
2024/01/12 12:04:32;;;;;;;2.90;2.70;;;22.70;43.30;;;;;;222463;1265;24247;-49
2024/01/12 12:09:40;;;;;;;3.10;2.90;;;22.80;43.20;;;;;;222600;1265;25454;-51
2024/01/12 12:15:06;;;;;;;3.40;3.10;;;22.90;43.10;;;;;;222630;1266;22792;-50
2024/01/12 12:20:12;;;;;;;3.20;2.90;;;23.00;42.90;;;;;;222830;1266;22798;-49
2024/01/12 12:25:16;;;;;;;2.90;2.70;;;23.10;42.70;;;;;;222661;1267;24190;-51
2024/01/12 12:30:21;;;;;;;3.20;2.90;;;23.10;42.70;;;;;;223012;1259;22572;-52
2024/01/12 12:35:26;;;;;;;3.00;2.70;;;23.10;42.60;;;;;;222542;1263;22576;-54
2024/01/12 12:40:32;;;;;;;2.80;2.60;;;23.00;42.60;;;;;;222641;1244;23897;-51
2024/01/12 12:45:37;;;;;;;3.70;3.30;;;22.90;42.70;;;;;;222754;1249;25265;-49
2024/01/12 12:50:41;;;;;;;3.20;2.90;;;22.80;42.70;;;;;;222628;1267;25366;-51
2024/01/12 12:55:47;;;;;;;3.60;2.60;;;23.00;42.50;;;;;;222371;1265;22527;-49
2024/01/12 13:00:52;;;;;;;5.40;2.60;;;22.70;43.00;;;;;;222628;1262;22629;-48
2024/01/12 13:05:57;;;;;;;2.90;2.70;;;22.60;42.90;;;;;;222664;1267;26554;-48
2024/01/12 13:11:04;;;;;;;2.90;2.60;;;22.60;43.10;;;;;;222332;1267;22637;-48
2024/01/12 13:16:09;;;;;;;2.90;2.70;;;22.60;43.50;;;;;;222356;1266;25265;-51
2024/01/12 13:21:14;;;;;;;3.30;3.00;;;22.60;43.00;;;;;;222597;1257;22521;-48
2024/01/12 13:26:19;;;;;;;3.00;2.70;;;22.70;43.10;;;;;;222493;1262;24362;-52
2024/01/12 13:31:24;;;;;;;2.70;2.50;;;22.90;42.60;;;;;;222587;1267;23816;-51
2024/01/12 13:36:28;;;;;;;3.00;2.80;;;22.90;42.70;;;;;;222921;1267;22531;-48
2024/01/12 13:41:34;;;;;;;3.30;3.00;;;22.90;42.40;;;;;;222940;1267;22478;-48
2024/01/12 13:46:38;;;;;;;3.40;3.20;;;22.80;43.10;;;;;;222493;1267;24189;-50
2024/01/12 13:51:43;;;;;;;3.40;3.10;;;22.80;42.80;;;;;;222448;1267;26188;-52
2024/01/12 13:56:47;;;;;;;2.70;2.50;;;22.80;42.70;;;;;;222769;1251;24235;-51
2024/01/12 14:01:52;;;;;;;3.20;3.00;;;22.80;42.80;;;;;;222593;1265;23786;-49
2024/01/12 14:06:56;;;;;;;2.50;2.30;;;22.90;42.50;;;;;;222611;1264;22573;-52
2024/01/12 14:12:01;;;;;;;3.10;2.50;;;23.00;42.90;;;;;;222725;1263;22524;-52
2024/01/12 14:17:06;;;;;;;2.80;2.60;;;22.90;42.80;;;;;;223119;1265;22655;-49
2024/01/12 14:22:11;;;;;;;3.10;2.40;;;22.80;42.80;;;;;;222225;1268;24145;-50
2024/01/12 14:27:16;;;;;;;3.40;3.20;;;22.80;42.70;;;;;;222285;1268;22888;-51
2024/01/12 14:32:21;;;;;;;3.00;2.80;;;22.80;42.90;;;;;;222724;1266;22533;-49
2024/01/12 14:37:29;;;;;;;3.10;2.80;;;22.60;42.70;;;;;;222602;1267;24384;-51
2024/01/12 14:42:34;;;;;;;2.80;2.60;;;22.70;42.60;;;;;;222380;1261;25353;-50
2024/01/12 14:47:45;;;;;;;2.70;2.50;;;22.70;42.50;;;;;;222449;1264;23912;-53
2024/01/12 14:52:50;;;;;;;3.00;2.80;;;22.60;42.70;;;;;;222860;1267;22534;-47
2024/01/12 14:57:54;;;;;;;2.80;2.60;;;22.60;42.50;;;;;;222419;1265;22996;-49
2024/01/12 15:03:01;;;;;;;2.60;2.40;;;22.60;42.00;;;;;;222549;1268;24316;-48
2024/01/12 15:08:07;;;;;;;3.10;2.90;;;22.70;42.50;;;;;;222685;1266;24379;-51
2024/01/12 15:13:13;;;;;;;3.40;3.10;;;22.80;42.20;;;;;;222412;1260;23943;-48
2024/01/12 15:18:19;;;;;;;3.10;2.80;;;22.90;41.90;;;;;;222735;1266;25660;-52
2024/01/12 15:23:25;;;;;;;3.00;2.80;;;22.90;41.90;;;;;;222533;1264;24197;-49
2024/01/12 15:28:30;;;;;;;3.30;3.00;;;22.90;41.80;;;;;;222160;1260;23741;-52
2024/01/12 15:33:35;;;;;;;3.60;3.30;;;22.90;41.80;;;;;;222863;1267;24390;-51
2024/01/12 15:38:39;;;;;;;5.40;3.20;;;22.80;41.80;;;;;;222658;1267;22539;-51
2024/01/12 15:43:44;;;;;;;3.60;3.30;;;22.90;42.10;;;;;;222618;1260;25265;-48
2024/01/12 15:48:49;;;;;;;3.00;2.80;;;22.90;41.70;;;;;;221910;1249;24198;-50
2024/01/12 15:53:54;;;;;;;3.40;3.20;;;23.00;41.70;;;;;;222141;1267;23486;-52
2024/01/12 15:59:04;;;;;;;5.20;3.40;;;23.00;42.00;;;;;;222468;1263;24251;-49
2024/01/12 16:04:10;;;;;;;3.60;2.90;;;23.00;42.10;;;;;;222541;1260;22526;-50
2024/01/12 16:09:23;;;;;;;5.90;3.40;;;22.90;42.50;;;;;;222862;1268;22639;-51
2024/01/12 16:14:39;;;;;;;4.80;2.90;;;22.70;44.00;;;;;;222239;1261;22754;-51
2024/01/12 16:19:48;;;;;;;3.00;2.70;;;22.60;44.00;;;;;;222515;1264;23844;-48
2024/01/12 16:24:55;;;;;;;4.00;2.70;;;22.60;43.90;;;;;;222826;1266;22681;-54
2024/01/12 16:29:59;;;;;;;3.20;2.80;;;22.50;44.10;;;;;;222356;1267;22604;-49
2024/01/12 16:35:05;;;;;;;4.40;2.90;;;22.40;45.50;;;;;;222572;1267;25372;-52
2024/01/12 16:40:11;;;;;;;4.90;3.10;;;22.40;45.60;;;;;;222531;1264;24194;-49
2024/01/12 16:45:15;;;;;;;4.50;2.90;;;22.40;45.50;;;;;;222770;1265;22519;-52
2024/01/12 16:50:19;;;;;;;3.60;3.00;;;22.60;44.80;;;;;;222452;1267;24205;-55
2024/01/12 16:55:24;;;;;;;6.70;3.50;;;22.80;44.50;;;;;;222040;1264;24310;-50
2024/01/12 17:00:33;;;;;;;8.80;2.90;;;22.90;44.30;;;;;;222272;1267;24452;-52
2024/01/12 17:05:38;;;;;;;3.70;2.60;;;22.90;44.30;;;;;;222388;1261;23162;-52
2024/01/12 17:10:46;;;;;;;7.40;2.70;;;22.90;44.00;;;;;;222429;1261;25890;-54
2024/01/12 17:15:50;;;;;;;3.80;2.60;;;22.90;43.60;;;;;;222392;1267;24202;-52
2024/01/12 17:20:54;;;;;;;3.40;2.80;;;23.00;43.30;;;;;;222605;1261;22675;-53
2024/01/12 17:26:09;;;;;;;2.30;2.20;;;22.90;43.30;;;;;;222443;1266;22534;-51
2024/01/12 17:31:16;;;;;;;4.30;3.20;;;22.80;43.50;;;;;;222956;1260;22606;-50
2024/01/12 17:36:21;;;;;;;8.00;2.80;;;22.70;43.50;;;;;;222887;1257;24212;-51
2024/01/12 17:41:25;;;;;;;8.60;3.70;;;22.70;43.60;;;;;;222258;1260;22553;-50
2024/01/12 17:46:30;;;;;;;6.40;3.00;;;22.60;43.30;;;;;;221942;1249;448666;-48
2024/01/12 17:51:38;;;;;;;7.70;3.50;;;22.50;43.90;;;;;;222283;1254;22521;-52
2024/01/12 17:56:43;;;;;;;4.60;3.00;;;22.50;43.10;;;;;;222594;1260;24305;-49
2024/01/12 18:01:47;;;;;;;8.80;4.70;;;22.50;43.50;;;;;;222531;1263;22521;-51
2024/01/12 18:06:51;;;;;;;16.10;5.20;;;22.50;43.60;;;;;;222203;1266;24295;-52
2024/01/12 18:12:01;;;;;;;17.30;5.20;;;22.70;44.20;;;;;;221581;1270;23987;-52
2024/01/12 18:17:10;;;;;;;16.90;4.20;;;22.70;46.60;;;;;;221155;1267;22576;-51
2024/01/12 18:22:19;;;;;;;4.60;4.20;;;22.70;47.90;;;;;;221200;1270;25336;-51
2024/01/12 18:27:24;;;;;;;14.40;4.00;;;22.80;45.00;;;;;;221466;1266;22532;-50
2024/01/12 18:32:31;;;;;;;9.10;3.20;;;23.00;45.00;;;;;;222229;1266;25428;-49
2024/01/12 18:37:36;;;;;;;10.10;4.20;;;23.00;44.40;;;;;;222567;1260;24238;-52
2024/01/12 18:42:41;;;;;;;13.20;4.10;;;23.00;44.30;;;;;;222155;1253;22548;-52
2024/01/12 18:47:46;;;;;;;9.70;3.70;;;23.00;44.20;;;;;;222575;1260;25363;-53
2024/01/12 18:52:51;;;;;;;6.10;3.30;;;22.90;43.90;;;;;;222503;1264;22544;-53
2024/01/12 18:57:55;;;;;;;7.20;3.10;;;22.70;43.50;;;;;;222593;1261;22703;-50
2024/01/12 19:03:04;;;;;;;9.30;3.80;;;22.60;43.90;;;;;;222567;1247;24225;-52
2024/01/12 19:08:11;;;;;;;9.00;3.40;;;22.50;43.80;;;;;;222461;1260;26096;-53
2024/01/12 19:13:18;;;;;;;9.90;3.70;;;22.40;43.90;;;;;;223165;1254;22524;-52
2024/01/12 19:18:23;;;;;;;7.80;3.70;;;22.40;43.90;;;;;;222898;1260;24240;-51
2024/01/12 19:23:31;;;;;;;7.50;3.50;;;22.30;43.90;;;;;;222526;1267;22685;-52
2024/01/12 19:28:36;;;;;;;9.90;4.00;;;22.20;43.90;;;;;;222367;1264;24252;-53
2024/01/12 19:33:41;;;;;;;8.30;3.30;;;22.30;43.60;;;;;;222472;1260;25285;-51
2024/01/12 19:38:45;;;;;;;10.00;3.60;;;22.40;44.80;;;;;;222668;1266;24321;-51
2024/01/12 19:43:53;;;;;;;13.40;4.30;;;22.50;44.40;;;;;;222609;1261;22541;-52
2024/01/12 19:48:57;;;;;;;15.10;4.40;;;22.50;44.60;;;;;;222638;1261;22627;-54
2024/01/12 19:54:02;;;;;;;13.30;5.00;;;22.70;44.20;;;;;;222579;1266;22551;-53
2024/01/12 19:59:09;;;;;;;17.10;5.00;;;22.70;46.00;;;;;;223074;1266;24327;-51
2024/01/12 20:04:13;;;;;;;18.80;6.10;;;22.80;45.80;;;;;;222342;1267;22521;-48
2024/01/12 20:09:17;;;;;;;10.40;4.90;;;22.80;48.50;;;;;;221415;1267;22521;-47
2024/01/12 20:14:22;;;;;;;14.10;5.00;;;22.70;45.80;;;;;;221620;1266;22534;-51
2024/01/12 20:19:26;;;;;;;10.20;4.10;;;22.60;46.00;;;;;;221618;1269;23134;-48
2024/01/12 20:24:31;;;;;;;10.90;4.60;;;22.50;45.80;;;;;;221889;1263;24225;-52
2024/01/12 20:29:35;;;;;;;10.80;4.20;;;22.50;46.40;;;;;;222602;1264;22527;-51
2024/01/12 20:34:40;;;;;;;16.20;5.40;;;22.50;46.20;;;;;;222222;1264;22531;-52
2024/01/12 20:39:44;;;;;;;10.40;4.80;;;22.30;45.70;;;;;;222414;1253;25289;-53
2024/01/12 20:44:49;;;;;;;11.60;4.60;;;22.40;45.40;;;;;;222156;1264;22544;-49
2024/01/12 20:49:54;;;;;;;6.90;3.80;;;22.50;44.80;;;;;;222740;1262;22533;-51
2024/01/12 20:54:58;;;;;;;17.20;5.80;;;22.40;45.00;;;;;;222592;1260;24364;-49
2024/01/12 21:00:04;;;;;;;11.60;6.00;;;22.40;45.60;;;;;;222141;1256;22632;-51
2024/01/12 21:05:09;;;;;;;11.70;5.90;;;22.40;46.20;;;;;;222435;1260;24206;-54
2024/01/12 21:10:13;;;;;;;16.80;6.70;;;22.60;45.60;;;;;;222344;1253;25360;-51
2024/01/12 21:15:31;;;;;;;13.10;6.40;;;22.80;48.40;;;;;;222212;1266;22602;-51
2024/01/12 21:20:35;;;;;;;15.30;6.40;;;22.90;49.00;;;;;;222484;1264;24197;-49
2024/01/12 21:25:41;;;;;;;14.20;6.10;;;23.00;48.20;;;;;;222671;1252;24202;-47
2024/01/12 21:30:47;;;;;;;24.20;6.70;;;23.00;47.50;;;;;;222716;1264;22532;-50
2024/01/12 21:35:58;;;;;;;10.80;5.70;;;23.00;47.80;;;;;;222431;1267;22525;-54
2024/01/12 21:41:03;;;;;;;17.90;6.00;;;23.00;47.20;;;;;;222641;1264;26516;-49
2024/01/12 21:46:09;;;;;;;20.50;7.10;;;23.00;46.90;;;;;;222624;1265;25335;-53
2024/01/12 21:51:14;;;;;;;44.30;9.40;;;23.00;46.60;;;;;;222205;1260;24339;-56
2024/01/12 21:56:19;;;;;;;10.80;4.10;;;23.00;46.70;;;;;;225221;1247;24203;-54
2024/01/12 22:01:25;;;;;;;13.40;4.90;;;22.90;46.20;;;;;;222528;1267;24231;-56
2024/01/12 22:06:30;;;;;;;17.00;5.00;;;22.80;46.20;;;;;;222697;1260;24203;-55
2024/01/12 22:11:35;;;;;;;9.30;3.90;;;22.80;46.00;;;;;;222643;1259;25546;-54
2024/01/12 22:16:39;;;;;;;16.10;4.30;;;22.80;45.20;;;;;;222567;1264;24269;-53
2024/01/12 22:21:46;;;;;;;16.20;4.60;;;22.80;45.70;;;;;;222637;1258;24247;-54
2024/01/12 22:26:50;;;;;;;14.30;4.60;;;22.70;45.60;;;;;;222415;1263;26466;-55
2024/01/12 22:31:54;;;;;;;16.10;5.10;;;22.70;45.40;;;;;;222511;1266;24193;-54
2024/01/12 22:36:59;;;;;;;14.60;5.20;;;22.80;51.00;;;;;;222502;1263;25560;-55
2024/01/12 22:42:04;;;;;;;16.90;5.20;;;23.20;50.00;;;;;;222505;1253;24226;-55
2024/01/12 22:47:09;;;;;;;10.10;3.60;;;23.30;52.50;;;;;;222759;1264;24238;-52
2024/01/12 22:52:14;;;;;;;21.50;5.40;;;23.30;50.70;;;;;;222623;1262;25699;-55
2024/01/12 22:57:18;;;;;;;13.00;4.70;;;23.20;50.80;;;;;;222564;1253;24193;-54
2024/01/12 23:02:23;;;;;;;18.60;5.70;;;23.20;50.50;;;;;;222516;1262;24200;-55
2024/01/12 23:07:28;;;;;;;10.70;4.50;;;23.10;50.30;;;;;;222363;1262;23482;-55
2024/01/12 23:12:33;;;;;;;12.70;4.80;;;23.00;50.20;;;;;;222689;1261;22710;-56
2024/01/12 23:17:38;;;;;;;11.80;4.30;;;22.90;50.20;;;;;;222369;1253;24379;-56
2024/01/12 23:22:42;;;;;;;36.90;6.80;;;22.70;50.30;;;;;;222274;1268;25426;-55
2024/01/12 23:27:46;;;;;;;25.00;7.20;;;22.60;50.30;;;;;;222127;1247;24203;-54
2024/01/12 23:32:51;;;;;;;19.80;5.90;;;22.50;50.40;;;;;;222114;1263;22549;-54
2024/01/12 23:37:56;;;;;;;23.00;5.90;;;22.50;50.30;;;;;;227731;1264;24736;-55
2024/01/12 23:43:00;;;;;;;32.60;7.90;;;22.60;49.90;;;;;;223095;1247;24405;-55
2024/01/12 23:48:05;;;;;;;20.60;6.10;;;22.80;49.70;;;;;;222314;1263;25389;-54
2024/01/12 23:53:09;;;;;;;19.80;6.10;;;22.80;49.80;;;;;;222807;1264;22559;-55
2024/01/12 23:58:13;;;;;;;16.60;6.50;;;22.90;49.90;;;;;;222542;1262;24190;-56
